Terminal Aerodrome Forecast
Issued by NWS

Home | Current Version | Previous Version | Text Only | Print | Product List | Glossary On
Versions: 1 2 3 4 5 6 7 8 9 10 11 12 13
082
FTPA31 PHFO 230529
TAFHMK
TAF
PHMK 230529Z 2306/2406 05014G22KT P6SM FEW025 SCT060
     FM232000 05018G28KT P6SM SCT030 SCT060
     FM240500 05012G20KT P6SM FEW025 SCT060=

USA.gov is the U.S. government's official web portal to all federal, state and local government web resources and services.